createdAt,value
2022-08-07T00:01:43.079Z,102840.75
2022-08-07T00:03:51.661Z,102841.28
2022-08-07T00:06:18.333Z,102836.13
2022-08-07T00:08:55.878Z,102831.69
2022-08-07T00:11:33.151Z,102835.22
2022-08-07T00:13:59.961Z,102824.16
2022-08-07T00:16:28.343Z,102832.16
2022-08-07T00:18:54.989Z,102824.22
2022-08-07T00:21:55.513Z,102821.28
2022-08-07T00:24:09.125Z,102819.22
2022-08-07T00:26:49.553Z,102820.22
2022-08-07T00:29:31.250Z,102816.00
2022-08-07T00:32:01.931Z,102827.72
2022-08-07T00:34:29.087Z,102823.00
2022-08-07T00:36:56.628Z,102820.91
2022-08-07T00:39:23.248Z,102818.09
2022-08-07T00:42:04.826Z,102820.75
2022-08-07T00:44:33.861Z,102819.78
2022-08-07T00:47:02.417Z,102810.84
2022-08-07T00:50:19.916Z,102818.53
2022-08-07T00:52:17.656Z,102815.56
2022-08-07T00:54:46.878Z,102804.97
2022-08-07T00:57:22.418Z,102811.13
2022-08-07T00:59:49.297Z,102805.81
2022-08-07T01:02:28.074Z,102811.97
2022-08-07T01:04:58.263Z,102806.38
2022-08-07T01:07:27.851Z,102808.88
2022-08-07T01:10:06.851Z,102804.28
2022-08-07T01:12:40.122Z,102800.09
2022-08-07T01:15:20.468Z,102813.06
2022-08-07T01:17:47.211Z,102806.09
2022-08-07T01:20:16.568Z,102807.78
2022-08-07T01:22:46.857Z,102815.03
2022-08-07T01:25:53.612Z,102811.38
2022-08-07T01:28:12.322Z,102803.03
2022-08-07T01:30:42.066Z,102812.66
2022-08-07T01:33:08.866Z,102810.97
2022-08-07T01:35:53.093Z,102807.34
2022-08-07T01:38:25.482Z,102796.06
2022-08-07T01:40:58.930Z,102793.28
2022-08-07T01:43:27.335Z,102809.19
2022-08-07T01:46:05.650Z,102803.34
2022-08-07T01:48:35.070Z,102796.34
2022-08-07T01:51:24.157Z,102797.50
2022-08-07T01:54:09.622Z,102792.03
2022-08-07T01:56:56.536Z,102796.81
2022-08-07T01:59:30.890Z,102789.44
2022-08-07T02:02:11.408Z,102788.47
2022-08-07T02:05:06.072Z,102787.19
2022-08-07T02:07:50.641Z,102782.53
2022-08-07T02:10:22.858Z,102787.31
2022-08-07T02:12:51.224Z,102788.69
2022-08-07T02:15:27.992Z,102785.06
2022-08-07T02:17:56.531Z,102778.66
2022-08-07T02:20:24.545Z,102783.78
2022-08-07T02:22:59.722Z,102781.16
2022-08-07T02:26:10.721Z,102773.91
2022-08-07T02:28:24.575Z,102779.88
2022-08-07T02:30:53.875Z,102774.72
2022-08-07T02:33:22.147Z,102767.91
2022-08-07T02:36:29.815Z,102770.00
2022-08-07T02:38:39.390Z,102775.59
2022-08-07T02:41:21.890Z,102777.53
2022-08-07T02:43:50.159Z,102779.06
2022-08-07T02:46:20.064Z,102779.78
2022-08-07T02:48:55.075Z,102773.38
2022-08-07T02:51:41.825Z,102769.31
2022-08-07T02:54:11.285Z,102765.69
2022-08-07T02:56:41.457Z,102764.56
2022-08-07T02:59:11.184Z,102757.19
2022-08-07T03:01:40.010Z,102756.34
2022-08-07T03:04:12.941Z,102757.75
2022-08-07T03:06:45.934Z,102747.41
2022-08-07T03:09:44.644Z,102753.91
2022-08-07T03:12:04.229Z,102754.06
2022-08-07T03:14:32.493Z,102755.75
2022-08-07T03:16:59.499Z,102757.97
2022-08-07T03:19:28.901Z,102758.81
2022-08-07T03:21:56.790Z,102762.84
2022-08-07T03:24:27.188Z,102754.09
2022-08-07T03:26:59.060Z,102759.13
2022-08-07T03:29:29.671Z,102759.41
2022-08-07T03:31:57.738Z,102755.19
2022-08-07T03:34:27.855Z,102759.22
2022-08-07T03:36:57.314Z,102755.19
2022-08-07T03:40:00.089Z,102759.63
2022-08-07T03:42:13.244Z,102754.63
2022-08-07T03:44:40.298Z,102756.28
2022-08-07T03:47:13.044Z,102762.81
2022-08-07T03:49:42.541Z,102759.06
2022-08-07T03:52:26.396Z,102770.06
2022-08-07T03:54:57.386Z,102771.19
2022-08-07T03:58:33.924Z,102771.69
2022-08-07T04:00:20.941Z,102767.75
2022-08-07T04:02:49.495Z,102771.66
2022-08-07T04:05:19.326Z,102769.16
2022-08-07T04:07:51.676Z,102763.44
2022-08-07T04:10:19.850Z,102759.09
2022-08-07T04:12:48.818Z,102766.78
2022-08-07T04:15:17.633Z,102767.59
2022-08-07T04:18:56.445Z,102764.97
2022-08-07T04:20:32.307Z,102766.38
2022-08-07T04:23:06.436Z,102770.41
2022-08-07T04:25:38.982Z,102768.47
2022-08-07T04:28:08.066Z,102770.31
2022-08-07T04:30:43.445Z,102759.84
2022-08-07T04:33:24.327Z,102764.28
2022-08-07T04:35:53.963Z,102768.41
2022-08-07T04:38:21.028Z,102768.78
2022-08-07T04:40:52.592Z,102774.34
2022-08-07T04:44:14.436Z,102773.41
2022-08-07T04:46:29.626Z,102773.41
2022-08-07T04:49:17.769Z,102785.91
2022-08-07T04:52:03.670Z,102775.91
2022-08-07T04:54:39.037Z,102786.22
2022-08-07T04:58:15.844Z,102779.25
2022-08-07T05:00:24.006Z,102783.69
2022-08-07T05:03:17.233Z,102787.50
2022-08-07T05:06:16.470Z,102785.97
2022-08-07T05:09:01.230Z,102792.28
2022-08-07T05:11:57.495Z,102794.00
2022-08-07T05:14:55.035Z,102780.94
2022-08-07T05:17:50.861Z,102792.38
2022-08-07T05:20:14.009Z,102787.38
2022-08-07T05:22:45.540Z,102793.66
2022-08-07T05:25:25.901Z,102790.22
2022-08-07T05:28:20.571Z,102788.66
2022-08-07T05:30:49.843Z,102789.94
2022-08-07T05:33:20.689Z,102785.34
2022-08-07T05:35:49.832Z,102786.78
2022-08-07T05:39:01.294Z,102797.63
2022-08-07T05:41:12.349Z,102788.84
2022-08-07T05:44:07.804Z,102796.91
2022-08-07T05:46:31.051Z,102801.19
2022-08-07T05:48:59.497Z,102795.81
2022-08-07T05:51:31.810Z,102803.00
2022-08-07T05:54:09.295Z,102799.03
2022-08-07T05:56:55.406Z,102806.34
2022-08-07T05:59:24.991Z,102805.69
2022-08-07T06:01:54.657Z,102808.41
2022-08-07T06:04:29.937Z,102810.41
2022-08-07T06:07:03.434Z,102814.88
2022-08-07T06:09:44.847Z,102826.50
2022-08-07T06:12:17.875Z,102822.16
2022-08-07T06:14:49.616Z,102826.63
2022-08-07T06:17:19.294Z,102821.56
2022-08-07T06:20:03.451Z,102823.81
2022-08-07T06:22:38.727Z,102824.66
2022-08-07T06:25:10.004Z,102818.09
2022-08-07T06:27:59.834Z,102817.03
2022-08-07T06:30:36.161Z,102818.09
2022-08-07T06:33:16.269Z,102811.97
2022-08-07T06:35:47.490Z,102807.31
2022-08-07T06:38:19.864Z,102805.97
2022-08-07T06:40:51.276Z,102806.13
2022-08-07T06:43:23.742Z,102803.41
2022-08-07T06:45:50.957Z,102806.72
2022-08-07T06:48:25.218Z,102818.66
2022-08-07T06:50:54.833Z,102807.03
2022-08-07T06:55:28.451Z,102798.47
2022-08-07T06:56:15.374Z,102799.91
2022-08-07T07:00:13.971Z,102798.69
2022-08-07T07:01:33.206Z,102802.47
2022-08-07T07:04:23.748Z,102797.81
2022-08-07T07:07:01.195Z,102793.03
2022-08-07T07:09:31.370Z,102789.44
2022-08-07T07:12:25.623Z,102793.81
2022-08-07T07:15:24.010Z,102793.97
2022-08-07T07:18:48.026Z,102792.69
2022-08-07T07:21:13.772Z,102792.50
2022-08-07T07:24:08.642Z,102794.06
2022-08-07T07:26:37.771Z,102796.94
2022-08-07T07:29:39.048Z,102792.69
2022-08-07T07:32:01.447Z,102796.06
2022-08-07T07:34:32.017Z,102794.75
2022-08-07T07:37:14.472Z,102791.63
2022-08-07T07:39:54.288Z,102792.78
2022-08-07T07:42:25.828Z,102793.75
2022-08-07T07:45:01.520Z,102796.72
2022-08-07T07:47:30.508Z,102791.41
2022-08-07T07:50:35.166Z,102795.59
2022-08-07T07:53:13.640Z,102801.66
2022-08-07T07:55:57.797Z,102795.63
2022-08-07T07:58:31.050Z,102801.22
2022-08-07T08:02:02.856Z,102790.63
2022-08-07T08:04:09.262Z,102797.19
2022-08-07T08:06:50.870Z,102804.00
2022-08-07T08:09:23.626Z,102792.81
2022-08-07T08:12:02.907Z,102786.84
2022-08-07T08:14:36.458Z,102785.78
2022-08-07T08:17:56.059Z,102790.16
2022-08-07T08:20:18.733Z,102785.78
2022-08-07T08:23:01.581Z,102786.72
2022-08-07T08:25:50.460Z,102785.97
2022-08-07T08:28:23.690Z,102776.50
2022-08-07T08:31:02.024Z,102774.41
2022-08-07T08:33:34.310Z,102776.34
2022-08-07T08:36:03.267Z,102771.19
2022-08-07T08:38:42.048Z,102776.97
2022-08-07T08:41:57.351Z,102771.41
2022-08-07T08:44:44.909Z,102763.03
2022-08-07T08:47:52.187Z,102767.97
2022-08-07T08:50:28.190Z,102771.50
2022-08-07T08:53:30.341Z,102759.34
2022-08-07T08:56:12.122Z,102761.81
2022-08-07T08:58:50.578Z,102762.47
2022-08-07T09:01:29.817Z,102758.28
2022-08-07T09:04:25.943Z,102766.16
2022-08-07T09:07:06.328Z,102763.97
2022-08-07T09:10:20.536Z,102760.84
2022-08-07T09:13:03.670Z,102754.19
2022-08-07T09:16:21.620Z,102758.63
2022-08-07T09:19:52.095Z,102755.25
2022-08-07T09:24:31.729Z,102752.03
2022-08-07T09:25:33.106Z,102758.16
2022-08-07T09:29:22.332Z,102760.72
2022-08-07T09:31:08.524Z,102766.41
2022-08-07T09:33:58.133Z,102754.50
2022-08-07T09:36:42.791Z,102752.88
2022-08-07T09:39:52.530Z,102747.53
2022-08-07T09:42:23.084Z,102752.66
2022-08-07T09:47:52.194Z,102741.53
2022-08-07T09:48:56.033Z,102737.63
2022-08-07T09:52:16.092Z,102740.72
2022-08-07T09:54:59.423Z,102739.94
2022-08-07T09:57:50.672Z,102728.78
2022-08-07T10:00:24.390Z,102725.91
2022-08-07T10:02:56.609Z,102727.47
2022-08-07T10:05:59.101Z,102716.84
2022-08-07T10:09:03.667Z,102721.88
2022-08-07T10:12:15.417Z,102713.22
2022-08-07T10:15:18.618Z,102711.97
2022-08-07T10:18:04.010Z,102708.88
2022-08-07T10:21:19.777Z,102696.53
2022-08-07T10:24:21.632Z,102708.59
2022-08-07T10:27:00.340Z,102702.59
2022-08-07T10:29:32.684Z,102689.91
2022-08-07T10:32:52.956Z,102692.19
2022-08-07T10:35:55.527Z,102682.63
2022-08-07T10:38:48.845Z,102688.94
2022-08-07T10:41:54.636Z,102685.47
2022-08-07T10:44:39.328Z,102696.69
2022-08-07T10:47:53.176Z,102690.81
2022-08-07T10:50:34.143Z,102689.88
2022-08-07T10:53:09.321Z,102682.59
2022-08-07T10:55:47.341Z,102676.47
2022-08-07T10:58:33.023Z,102689.81
2022-08-07T11:01:16.871Z,102683.44
2022-08-07T11:04:16.495Z,102674.59
2022-08-07T11:07:03.236Z,102669.72
2022-08-07T11:10:09.374Z,102661.94
2022-08-07T11:12:37.962Z,102651.94
2022-08-07T11:15:14.686Z,102660.03
2022-08-07T11:17:50.190Z,102651.69
2022-08-07T11:20:35.590Z,102649.91
2022-08-07T11:23:20.831Z,102640.81
2022-08-07T11:26:15.118Z,102641.53
2022-08-07T11:29:05.721Z,102635.84
2022-08-07T11:31:55.752Z,102637.38
2022-08-07T11:34:27.054Z,102634.13
2022-08-07T11:37:13.279Z,102621.88
2022-08-07T11:40:08.707Z,102633.41
2022-08-07T11:42:54.060Z,102633.13
2022-08-07T11:45:36.140Z,102632.81
2022-08-07T11:48:30.072Z,102637.28
2022-08-07T11:51:50.875Z,102624.06
2022-08-07T11:54:55.545Z,102633.38
2022-08-07T11:58:00.792Z,102622.84
2022-08-07T12:01:09.373Z,102624.22
2022-08-07T12:04:27.707Z,102616.63
2022-08-07T12:07:27.797Z,102622.88
2022-08-07T12:10:13.770Z,102618.59
2022-08-07T12:12:46.511Z,102611.47
2022-08-07T12:15:57.945Z,102619.44
2022-08-07T12:18:50.736Z,102616.63
2022-08-07T12:21:55.948Z,102620.94
2022-08-07T12:26:05.323Z,102613.91
2022-08-07T12:28:57.918Z,102618.13
2022-08-07T12:32:01.701Z,102621.63
2022-08-07T12:34:22.714Z,102619.78
2022-08-07T12:36:54.612Z,102617.91
2022-08-07T12:39:43.888Z,102621.34
2022-08-07T12:42:13.433Z,102605.25
2022-08-07T12:44:45.177Z,102603.69
2022-08-07T12:47:31.043Z,102611.69
2022-08-07T12:50:34.247Z,102606.00
2022-08-07T12:53:18.917Z,102595.50
2022-08-07T12:56:03.225Z,102607.75
2022-08-07T12:58:39.361Z,102606.41
2022-08-07T13:01:07.711Z,102607.88
2022-08-07T13:04:05.351Z,102612.78
2022-08-07T13:07:01.170Z,102594.09
2022-08-07T13:10:28.730Z,102607.06
2022-08-07T13:13:47.507Z,102604.78
2022-08-07T13:16:27.175Z,102600.16
2022-08-07T13:19:11.387Z,102608.84
2022-08-07T13:22:19.398Z,102597.47
2022-08-07T13:24:56.519Z,102595.44
2022-08-07T13:28:10.706Z,102592.41
2022-08-07T13:30:48.901Z,102591.63
2022-08-07T13:34:30.293Z,102598.78
2022-08-07T13:36:26.145Z,102584.34
2022-08-07T13:39:12.890Z,102578.47
2022-08-07T13:41:54.892Z,102591.91
2022-08-07T13:44:34.252Z,102585.97
2022-08-07T13:47:09.570Z,102586.69
2022-08-07T13:50:34.378Z,102590.72
2022-08-07T13:52:38.181Z,102588.00
2022-08-07T13:55:10.968Z,102589.19
2022-08-07T13:57:48.741Z,102587.38
2022-08-07T14:00:50.344Z,102581.88
2022-08-07T14:03:28.935Z,102585.69
2022-08-07T14:06:12.341Z,102586.13
2022-08-07T14:08:53.486Z,102592.41
2022-08-07T14:11:22.874Z,102589.50
2022-08-07T14:13:57.912Z,102584.84
2022-08-07T14:16:31.304Z,102585.66
2022-08-07T14:19:01.349Z,102578.16
2022-08-07T14:22:02.853Z,102582.00
2022-08-07T14:24:42.699Z,102583.81
2022-08-07T14:28:12.452Z,102579.66
2022-08-07T14:30:11.789Z,102581.13
2022-08-07T14:32:45.699Z,102579.50
2022-08-07T14:35:43.089Z,102576.28
2022-08-07T14:38:26.565Z,102581.16
2022-08-07T14:41:14.658Z,102586.03
2022-08-07T14:46:33.262Z,102585.38
2022-08-07T14:49:56.018Z,102578.03
2022-08-07T14:54:43.490Z,102579.53
2022-08-07T14:57:15.013Z,102576.22
2022-08-07T15:02:37.407Z,102574.00
2022-08-07T15:07:56.515Z,102563.41
2022-08-07T15:10:29.616Z,102564.41
2022-08-07T15:13:05.711Z,102557.53
2022-08-07T15:15:38.968Z,102560.06
2022-08-07T15:18:14.310Z,102556.84
2022-08-07T15:21:08.235Z,102558.69
2022-08-07T15:25:15.128Z,102548.94
2022-08-07T15:27:06.383Z,102548.88
2022-08-07T15:32:39.699Z,102555.25
2022-08-07T15:35:12.488Z,102551.72
2022-08-07T15:38:17.365Z,102550.63
2022-08-07T15:43:53.314Z,102551.13
2022-08-07T15:49:17.525Z,102541.81
2022-08-07T15:54:30.928Z,102533.78
2022-08-07T15:57:04.979Z,102539.09
2022-08-07T15:59:38.980Z,102538.44
2022-08-07T16:02:08.503Z,102532.69
2022-08-07T16:04:38.417Z,102537.63
2022-08-07T16:08:31.234Z,102537.03
2022-08-07T16:10:14.267Z,102532.22
2022-08-07T16:13:05.350Z,102534.09
2022-08-07T16:15:57.965Z,102533.97
2022-08-07T16:19:09.527Z,102528.94
2022-08-07T16:21:53.484Z,102531.41
2022-08-07T16:24:35.620Z,102531.03
2022-08-07T16:27:18.549Z,102534.81
2022-08-07T16:30:29.316Z,102533.72
2022-08-07T16:34:03.218Z,102534.44
2022-08-07T16:36:20.129Z,102532.81
2022-08-07T16:39:06.152Z,102532.06
2022-08-07T16:41:49.598Z,102533.94
2022-08-07T16:45:14.013Z,102532.69
2022-08-07T16:47:58.790Z,102527.41
2022-08-07T16:51:21.749Z,102526.84
2022-08-07T16:54:27.798Z,102525.41
2022-08-07T16:57:03.183Z,102520.44
2022-08-07T16:59:59.234Z,102537.66
2022-08-07T17:02:59.777Z,102525.13
2022-08-07T17:06:29.245Z,102524.56
2022-08-07T17:09:15.846Z,102528.59
2022-08-07T17:12:44.154Z,102536.03
2022-08-07T17:15:15.663Z,102534.81
2022-08-07T17:17:48.351Z,102532.41
2022-08-07T17:20:29.992Z,102532.88
2022-08-07T17:23:08.730Z,102533.16
2022-08-07T17:26:23.963Z,102533.59
2022-08-07T17:29:04.672Z,102526.38
2022-08-07T17:31:44.187Z,102521.66
2022-08-07T17:34:57.175Z,102520.84
2022-08-07T17:38:11.363Z,102528.28
2022-08-07T17:40:34.370Z,102521.41
2022-08-07T17:43:15.095Z,102520.41
2022-08-07T17:45:55.311Z,102522.25
2022-08-07T17:48:31.866Z,102513.16
2022-08-07T17:51:04.120Z,102517.34
2022-08-07T17:54:00.574Z,102522.34
2022-08-07T17:56:35.405Z,102514.88
2022-08-07T17:59:17.026Z,102512.41
2022-08-07T18:02:10.893Z,102516.38
2022-08-07T18:06:02.336Z,102520.72
2022-08-07T18:08:24.261Z,102527.78
2022-08-07T18:12:07.186Z,102522.84
2022-08-07T18:14:19.826Z,102530.13
2022-08-07T18:17:07.358Z,102522.47
2022-08-07T18:21:06.884Z,102522.69
2022-08-07T18:22:58.749Z,102528.63
2022-08-07T18:25:40.343Z,102533.38
2022-08-07T18:28:35.706Z,102534.44
2022-08-07T18:31:15.175Z,102538.53
2022-08-07T18:34:35.908Z,102533.34
2022-08-07T18:38:58.894Z,102536.38
2022-08-07T18:40:42.305Z,102536.75
2022-08-07T18:43:18.552Z,102542.19
2022-08-07T18:46:21.969Z,102540.22
2022-08-07T18:50:30.206Z,102543.03
2022-08-07T18:52:40.885Z,102545.59
2022-08-07T18:55:41.632Z,102542.09
2022-08-07T18:58:43.406Z,102551.38
2022-08-07T19:02:19.934Z,102553.88
2022-08-07T19:05:14.904Z,102538.88
2022-08-07T19:08:05.183Z,102551.41
2022-08-07T19:11:34.716Z,102555.06
2022-08-07T19:14:17.344Z,102552.09
2022-08-07T19:17:06.515Z,102554.34
2022-08-07T19:19:38.725Z,102568.06
2022-08-07T19:22:30.878Z,102565.91
2022-08-07T19:25:05.449Z,102567.06
2022-08-07T19:28:56.468Z,102574.22
2022-08-07T19:31:05.749Z,102564.66
2022-08-07T19:33:18.857Z,102564.94
2022-08-07T19:36:01.548Z,102567.03
2022-08-07T19:38:30.577Z,102572.59
2022-08-07T19:41:00.606Z,102578.91
2022-08-07T19:43:50.075Z,102577.84
2022-08-07T19:46:26.717Z,102584.41
2022-08-07T19:49:02.652Z,102576.44
2022-08-07T19:51:52.251Z,102584.00
2022-08-07T19:54:33.412Z,102585.38
2022-08-07T19:58:01.573Z,102593.88
2022-08-07T20:00:10.121Z,102587.41
2022-08-07T20:02:52.164Z,102591.53
2022-08-07T20:05:27.847Z,102593.56
2022-08-07T20:08:00.871Z,102587.44
2022-08-07T20:10:54.947Z,102592.44
2022-08-07T20:13:38.472Z,102593.94
2022-08-07T20:16:32.177Z,102595.94
2022-08-07T20:18:59.361Z,102596.47
2022-08-07T20:21:41.702Z,102603.94
2022-08-07T20:24:35.840Z,102605.78
2022-08-07T20:27:11.738Z,102601.16
2022-08-07T20:29:58.302Z,102599.81
2022-08-07T20:32:39.632Z,102594.81
2022-08-07T20:35:26.575Z,102597.16
2022-08-07T20:37:58.508Z,102599.97
2022-08-07T20:40:33.054Z,102596.13
2022-08-07T20:43:03.570Z,102586.50
2022-08-07T20:46:26.476Z,102600.44
2022-08-07T20:48:30.762Z,102597.28
2022-08-07T20:51:03.310Z,102596.59
2022-08-07T20:54:03.983Z,102600.94
2022-08-07T20:56:28.853Z,102600.78
2022-08-07T20:58:59.751Z,102601.25
2022-08-07T21:01:29.822Z,102598.38
2022-08-07T21:04:22.215Z,102598.53
2022-08-07T21:06:53.716Z,102600.00
2022-08-07T21:09:24.401Z,102602.38
2022-08-07T21:11:55.708Z,102596.53
2022-08-07T21:14:32.047Z,102609.50
2022-08-07T21:18:03.822Z,102606.16
2022-08-07T21:20:06.143Z,102605.31
2022-08-07T21:22:45.173Z,102605.97
2022-08-07T21:25:29.695Z,102604.63
2022-08-07T21:28:16.786Z,102617.41
2022-08-07T21:31:49.845Z,102602.94
2022-08-07T21:35:01.366Z,102595.91
2022-08-07T21:37:58.308Z,102611.69
2022-08-07T21:40:36.115Z,102604.56
2022-08-07T21:43:10.981Z,102602.22
2022-08-07T21:46:08.842Z,102592.28
2022-08-07T21:48:59.636Z,102593.59
2022-08-07T21:51:32.361Z,102594.59
2022-08-07T21:54:19.554Z,102601.72
2022-08-07T21:56:57.908Z,102610.69
2022-08-07T22:00:04.331Z,102608.84
2022-08-07T22:03:10.093Z,102606.56
2022-08-07T22:05:58.112Z,102609.53
2022-08-07T22:08:33.946Z,102610.22
2022-08-07T22:11:04.556Z,102616.50
2022-08-07T22:13:52.922Z,102612.16
2022-08-07T22:16:46.659Z,102612.66
2022-08-07T22:19:29.782Z,102614.09
2022-08-07T22:22:27.905Z,102618.91
2022-08-07T22:25:12.302Z,102617.69
2022-08-07T22:28:07.610Z,102615.69
2022-08-07T22:30:51.926Z,102618.13
2022-08-07T22:33:53.280Z,102626.59
2022-08-07T22:36:23.728Z,102636.97
2022-08-07T22:39:07.455Z,102634.09
2022-08-07T22:42:04.063Z,102636.91
2022-08-07T22:44:34.479Z,102633.28
2022-08-07T22:47:23.227Z,102632.66
2022-08-07T22:50:09.112Z,102643.28
2022-08-07T22:52:46.453Z,102637.75
2022-08-07T22:55:31.365Z,102645.50
2022-08-07T22:58:45.337Z,102644.00
2022-08-07T23:01:30.550Z,102648.50
2022-08-07T23:04:57.985Z,102639.00
2022-08-07T23:07:49.320Z,102640.69
2022-08-07T23:10:36.433Z,102636.66
2022-08-07T23:13:21.534Z,102639.00
2022-08-07T23:16:46.704Z,102640.84
2022-08-07T23:19:47.894Z,102635.81
2022-08-07T23:22:34.723Z,102644.63
2022-08-07T23:25:31.999Z,102632.50
2022-08-07T23:28:22.107Z,102643.25
2022-08-07T23:31:13.826Z,102638.41
2022-08-07T23:34:36.359Z,102654.97
2022-08-07T23:38:00.426Z,102646.59
2022-08-07T23:40:39.827Z,102657.63
2022-08-07T23:43:22.665Z,102646.31
2022-08-07T23:46:10.491Z,102650.09
2022-08-07T23:48:56.223Z,102657.34
2022-08-07T23:53:00.749Z,102653.41
2022-08-07T23:54:46.367Z,102652.47
2022-08-07T23:57:34.875Z,102651.22
